Windom, MN

11:45 PM CST on December 04, 2016 (GMT -0600)
Sorenson Seed | | Change Station

Elev 1404 ft 44.04 °N, 95.33 °W | Updated 42 seconds ago

Scattered Clouds
Scattered Clouds
31.5 °F
Feels Like 28 °F
N
4.0
Wind Variable Wind from South
Gusts 6.0 mph

Today
High -- | Low -- °F
--% Chance of Precip.
Yesterday
High -- | Low -- °F
Precip. -- in
Pressure 29.81 in
Visibility 10.0 miles
Clouds Scattered Clouds 9500 ft
Windchill 28 °F
Dew Point 29 °F
Humidity 92%
Rainfall 0.00 in
Snow Depth Not available.
7:38 AM 4:43 PM
Waxing Crescent, 28% visible
METAR KMJQ 050535Z AUTO 20007KT 10SM SCT095 M01/M02 A2981 RMK AO2
Pressure 29.81 in
Visibility 10.0 miles
Clouds Scattered Clouds 9500 ft
Windchill 28 °F
Dew Point 29 °F
Humidity 92%
Rainfall 0.00 in
Snow Depth Not available.
7:38 AM 4:43 PM
Waxing Crescent, 28% visible
METAR KMJQ 050535Z AUTO 20007KT 10SM SCT095 M01/M02 A2981 RMK AO2

10-Day Weather Forecast

Almanac

Astronomy

Dec. 04, 2016 Rise Set
Actual Time
Civil Twilight
Nautical Twilight
Astronomical Twilight
Moon
Length of Visible Light
Length of Day
Tomorrow will be .
, % of the Moon is Illuminated

Today's Extremes

State Highs State Lows

Community

WunderPhotos

Upload Photos

1,955,770 photos uploaded!

WunderBlog® & News

Nearby

Air Quality

  Air Quality AQ Index Pollutant
Not available.

Snow Depth

Station Depth Elevation

Earthquake Activity

City Distance Mag. Time & Date
Minimum magnitude displayed is 2.5.

Coastal Water Temperatures

Place Temperature

Stations

Nearby Weather Stations

Station Location Temp. Windchill Dew Point Humidity Wind Precip. Elev Updated Type
                   

Watches & Warnings

There are currently no watches in effect.